sensor_id;sensor_type;location;lat;lon;timestamp;P1;durP1;ratioP1;P2;durP2;ratioP2
17363;SDS011;8799;43.594;13.526;2023-03-01T00:01:11;4.60;;;2.77;;
17363;SDS011;8799;43.594;13.526;2023-03-01T00:03:39;6.30;;;3.17;;
17363;SDS011;8799;43.594;13.526;2023-03-01T00:06:08;6.07;;;3.20;;
17363;SDS011;8799;43.594;13.526;2023-03-01T00:08:36;5.30;;;2.90;;
17363;SDS011;8799;43.594;13.526;2023-03-01T00:11:06;5.93;;;2.90;;
17363;SDS011;8799;43.594;13.526;2023-03-01T00:13:43;4.87;;;2.63;;
17363;SDS011;8799;43.594;13.526;2023-03-01T00:16:12;4.67;;;3.00;;
17363;SDS011;8799;43.594;13.526;2023-03-01T00:18:42;5.70;;;3.00;;
17363;SDS011;8799;43.594;13.526;2023-03-01T00:21:10;5.97;;;3.20;;
17363;SDS011;8799;43.594;13.526;2023-03-01T00:23:38;6.00;;;3.00;;
17363;SDS011;8799;43.594;13.526;2023-03-01T00:26:08;8.30;;;3.03;;
17363;SDS011;8799;43.594;13.526;2023-03-01T00:28:37;5.63;;;2.90;;
17363;SDS011;8799;43.594;13.526;2023-03-01T00:31:05;5.63;;;2.93;;
17363;SDS011;8799;43.594;13.526;2023-03-01T00:33:33;6.00;;;3.23;;
17363;SDS011;8799;43.594;13.526;2023-03-01T00:36:02;7.60;;;3.47;;
17363;SDS011;8799;43.594;13.526;2023-03-01T00:38:33;5.93;;;3.33;;
17363;SDS011;8799;43.594;13.526;2023-03-01T00:41:05;5.70;;;2.97;;
17363;SDS011;8799;43.594;13.526;2023-03-01T00:43:36;7.30;;;3.10;;
17363;SDS011;8799;43.594;13.526;2023-03-01T00:46:05;6.27;;;3.10;;
17363;SDS011;8799;43.594;13.526;2023-03-01T00:48:34;5.70;;;2.90;;
17363;SDS011;8799;43.594;13.526;2023-03-01T00:51:06;7.30;;;2.87;;
17363;SDS011;8799;43.594;13.526;2023-03-01T00:53:34;7.17;;;2.80;;
17363;SDS011;8799;43.594;13.526;2023-03-01T00:56:04;5.63;;;2.97;;
17363;SDS011;8799;43.594;13.526;2023-03-01T00:58:56;6.00;;;3.03;;
17363;SDS011;8799;43.594;13.526;2023-03-01T01:01:24;6.53;;;3.07;;
17363;SDS011;8799;43.594;13.526;2023-03-01T01:03:57;7.20;;;2.73;;
17363;SDS011;8799;43.594;13.526;2023-03-01T01:06:26;6.00;;;3.00;;
17363;SDS011;8799;43.594;13.526;2023-03-01T01:08:56;4.20;;;3.00;;
17363;SDS011;8799;43.594;13.526;2023-03-01T01:11:25;6.07;;;2.80;;
17363;SDS011;8799;43.594;13.526;2023-03-01T01:13:54;5.97;;;3.50;;
17363;SDS011;8799;43.594;13.526;2023-03-01T01:16:25;4.97;;;3.20;;
17363;SDS011;8799;43.594;13.526;2023-03-01T01:18:54;6.73;;;3.40;;
17363;SDS011;8799;43.594;13.526;2023-03-01T01:21:23;5.50;;;2.90;;
17363;SDS011;8799;43.594;13.526;2023-03-01T01:23:51;5.57;;;2.93;;
17363;SDS011;8799;43.594;13.526;2023-03-01T01:26:20;8.03;;;3.20;;
17363;SDS011;8799;43.594;13.526;2023-03-01T01:28:49;6.63;;;2.50;;
17363;SDS011;8799;43.594;13.526;2023-03-01T01:31:19;5.60;;;2.87;;
17363;SDS011;8799;43.594;13.526;2023-03-01T01:33:48;5.63;;;3.20;;
17363;SDS011;8799;43.594;13.526;2023-03-01T01:36:16;5.77;;;2.63;;
17363;SDS011;8799;43.594;13.526;2023-03-01T01:38:44;6.27;;;2.87;;
17363;SDS011;8799;43.594;13.526;2023-03-01T01:41:14;7.20;;;3.37;;
17363;SDS011;8799;43.594;13.526;2023-03-01T01:43:43;8.43;;;3.17;;
17363;SDS011;8799;43.594;13.526;2023-03-01T01:46:15;7.00;;;3.30;;
17363;SDS011;8799;43.594;13.526;2023-03-01T01:48:52;7.63;;;3.13;;
17363;SDS011;8799;43.594;13.526;2023-03-01T01:51:25;5.17;;;3.03;;
17363;SDS011;8799;43.594;13.526;2023-03-01T01:54:03;5.10;;;2.80;;
17363;SDS011;8799;43.594;13.526;2023-03-01T01:56:36;6.00;;;2.90;;
17363;SDS011;8799;43.594;13.526;2023-03-01T01:59:07;6.80;;;3.17;;
17363;SDS011;8799;43.594;13.526;2023-03-01T02:01:38;4.63;;;2.47;;
17363;SDS011;8799;43.594;13.526;2023-03-01T02:04:05;5.53;;;3.13;;
17363;SDS011;8799;43.594;13.526;2023-03-01T02:06:35;9.23;;;3.30;;
17363;SDS011;8799;43.594;13.526;2023-03-01T02:09:06;5.27;;;2.83;;
17363;SDS011;8799;43.594;13.526;2023-03-01T02:11:38;7.57;;;3.27;;
17363;SDS011;8799;43.594;13.526;2023-03-01T02:14:07;5.60;;;3.03;;
17363;SDS011;8799;43.594;13.526;2023-03-01T02:16:35;5.20;;;2.97;;
17363;SDS011;8799;43.594;13.526;2023-03-01T02:19:04;8.43;;;3.13;;
17363;SDS011;8799;43.594;13.526;2023-03-01T02:21:36;5.37;;;3.00;;
17363;SDS011;8799;43.594;13.526;2023-03-01T02:24:11;6.37;;;3.03;;
17363;SDS011;8799;43.594;13.526;2023-03-01T02:26:47;7.47;;;2.90;;
17363;SDS011;8799;43.594;13.526;2023-03-01T02:29:20;5.20;;;2.93;;
17363;SDS011;8799;43.594;13.526;2023-03-01T02:31:48;6.20;;;3.03;;
17363;SDS011;8799;43.594;13.526;2023-03-01T02:34:17;6.50;;;2.50;;
17363;SDS011;8799;43.594;13.526;2023-03-01T02:36:47;4.93;;;2.40;;
17363;SDS011;8799;43.594;13.526;2023-03-01T02:39:18;4.37;;;2.67;;
17363;SDS011;8799;43.594;13.526;2023-03-01T02:41:51;8.93;;;3.03;;
17363;SDS011;8799;43.594;13.526;2023-03-01T02:44:22;7.77;;;2.97;;
17363;SDS011;8799;43.594;13.526;2023-03-01T02:46:51;5.70;;;2.93;;
17363;SDS011;8799;43.594;13.526;2023-03-01T02:49:23;10.17;;;3.13;;
17363;SDS011;8799;43.594;13.526;2023-03-01T02:52:00;9.00;;;2.87;;
17363;SDS011;8799;43.594;13.526;2023-03-01T02:54:43;6.63;;;2.77;;
17363;SDS011;8799;43.594;13.526;2023-03-01T02:57:17;7.00;;;2.80;;
17363;SDS011;8799;43.594;13.526;2023-03-01T02:59:47;7.13;;;3.33;;
17363;SDS011;8799;43.594;13.526;2023-03-01T03:02:18;6.73;;;2.50;;
17363;SDS011;8799;43.594;13.526;2023-03-01T03:05:01;3.37;;;2.13;;
17363;SDS011;8799;43.594;13.526;2023-03-01T03:07:31;5.50;;;2.93;;
17363;SDS011;8799;43.594;13.526;2023-03-01T03:10:01;5.87;;;2.73;;
17363;SDS011;8799;43.594;13.526;2023-03-01T03:12:29;7.43;;;2.60;;
17363;SDS011;8799;43.594;13.526;2023-03-01T03:14:59;4.77;;;2.63;;
17363;SDS011;8799;43.594;13.526;2023-03-01T03:17:26;7.20;;;2.80;;
17363;SDS011;8799;43.594;13.526;2023-03-01T03:19:55;6.10;;;3.33;;
17363;SDS011;8799;43.594;13.526;2023-03-01T03:22:23;6.60;;;2.70;;
17363;SDS011;8799;43.594;13.526;2023-03-01T03:24:53;6.57;;;2.93;;
17363;SDS011;8799;43.594;13.526;2023-03-01T03:27:22;5.93;;;2.87;;
17363;SDS011;8799;43.594;13.526;2023-03-01T03:29:50;8.00;;;3.03;;
17363;SDS011;8799;43.594;13.526;2023-03-01T03:32:24;4.93;;;2.83;;
17363;SDS011;8799;43.594;13.526;2023-03-01T03:34:52;8.73;;;2.87;;
17363;SDS011;8799;43.594;13.526;2023-03-01T03:37:20;7.33;;;2.87;;
17363;SDS011;8799;43.594;13.526;2023-03-01T03:40:06;6.50;;;2.77;;
17363;SDS011;8799;43.594;13.526;2023-03-01T03:42:40;6.30;;;2.80;;
17363;SDS011;8799;43.594;13.526;2023-03-01T03:45:08;6.03;;;2.30;;
17363;SDS011;8799;43.594;13.526;2023-03-01T03:47:38;5.80;;;2.70;;
17363;SDS011;8799;43.594;13.526;2023-03-01T03:50:06;7.27;;;2.60;;
17363;SDS011;8799;43.594;13.526;2023-03-01T03:52:34;5.60;;;3.17;;
17363;SDS011;8799;43.594;13.526;2023-03-01T03:55:01;8.53;;;3.07;;
17363;SDS011;8799;43.594;13.526;2023-03-01T03:57:29;7.63;;;3.00;;
17363;SDS011;8799;43.594;13.526;2023-03-01T03:59:57;4.30;;;2.43;;
17363;SDS011;8799;43.594;13.526;2023-03-01T04:02:25;5.97;;;2.80;;
17363;SDS011;8799;43.594;13.526;2023-03-01T04:04:55;8.40;;;2.67;;
17363;SDS011;8799;43.594;13.526;2023-03-01T04:07:23;6.10;;;2.93;;
17363;SDS011;8799;43.594;13.526;2023-03-01T04:09:50;4.70;;;2.63;;
17363;SDS011;8799;43.594;13.526;2023-03-01T04:12:18;9.00;;;2.70;;
17363;SDS011;8799;43.594;13.526;2023-03-01T04:14:48;11.23;;;2.60;;
17363;SDS011;8799;43.594;13.526;2023-03-01T04:17:16;6.30;;;2.90;;
17363;SDS011;8799;43.594;13.526;2023-03-01T04:19:44;8.20;;;2.60;;
17363;SDS011;8799;43.594;13.526;2023-03-01T04:22:15;6.37;;;2.60;;
17363;SDS011;8799;43.594;13.526;2023-03-01T04:24:43;3.90;;;2.30;;
17363;SDS011;8799;43.594;13.526;2023-03-01T04:29:47;6.73;;;3.00;;
17363;SDS011;8799;43.594;13.526;2023-03-01T04:32:14;8.80;;;2.90;;
17363;SDS011;8799;43.594;13.526;2023-03-01T04:34:42;5.53;;;2.60;;
17363;SDS011;8799;43.594;13.526;2023-03-01T04:37:10;8.80;;;3.07;;
17363;SDS011;8799;43.594;13.526;2023-03-01T04:39:39;6.90;;;3.07;;
17363;SDS011;8799;43.594;13.526;2023-03-01T04:42:12;6.23;;;3.07;;
17363;SDS011;8799;43.594;13.526;2023-03-01T04:44:40;6.00;;;2.60;;
17363;SDS011;8799;43.594;13.526;2023-03-01T04:47:09;6.30;;;2.27;;
17363;SDS011;8799;43.594;13.526;2023-03-01T04:49:37;6.10;;;2.50;;
17363;SDS011;8799;43.594;13.526;2023-03-01T04:52:05;5.57;;;2.47;;
17363;SDS011;8799;43.594;13.526;2023-03-01T04:54:33;7.60;;;2.77;;
17363;SDS011;8799;43.594;13.526;2023-03-01T04:57:04;8.50;;;3.13;;
17363;SDS011;8799;43.594;13.526;2023-03-01T04:59:32;9.80;;;3.07;;
17363;SDS011;8799;43.594;13.526;2023-03-01T05:02:01;7.93;;;2.80;;
17363;SDS011;8799;43.594;13.526;2023-03-01T05:04:29;8.13;;;2.90;;
17363;SDS011;8799;43.594;13.526;2023-03-01T05:06:57;6.70;;;2.70;;
17363;SDS011;8799;43.594;13.526;2023-03-01T05:09:25;6.40;;;3.23;;
17363;SDS011;8799;43.594;13.526;2023-03-01T05:11:57;5.47;;;2.33;;
17363;SDS011;8799;43.594;13.526;2023-03-01T05:14:28;8.57;;;2.50;;
17363;SDS011;8799;43.594;13.526;2023-03-01T05:16:56;6.00;;;2.57;;
17363;SDS011;8799;43.594;13.526;2023-03-01T05:19:28;5.27;;;2.93;;
17363;SDS011;8799;43.594;13.526;2023-03-01T05:21:56;5.83;;;2.80;;
17363;SDS011;8799;43.594;13.526;2023-03-01T05:24:31;6.60;;;2.57;;
17363;SDS011;8799;43.594;13.526;2023-03-01T05:27:00;6.10;;;2.70;;
17363;SDS011;8799;43.594;13.526;2023-03-01T05:29:31;8.93;;;3.57;;
17363;SDS011;8799;43.594;13.526;2023-03-01T05:32:01;7.30;;;2.57;;
17363;SDS011;8799;43.594;13.526;2023-03-01T05:34:30;7.10;;;2.83;;
17363;SDS011;8799;43.594;13.526;2023-03-01T05:37:01;6.83;;;2.60;;
17363;SDS011;8799;43.594;13.526;2023-03-01T05:39:30;5.23;;;2.33;;
17363;SDS011;8799;43.594;13.526;2023-03-01T05:41:59;7.33;;;2.53;;
17363;SDS011;8799;43.594;13.526;2023-03-01T05:44:28;5.67;;;2.43;;
17363;SDS011;8799;43.594;13.526;2023-03-01T05:46:58;4.37;;;2.10;;
17363;SDS011;8799;43.594;13.526;2023-03-01T05:49:25;5.27;;;2.43;;
17363;SDS011;8799;43.594;13.526;2023-03-01T05:51:53;10.13;;;2.57;;
17363;SDS011;8799;43.594;13.526;2023-03-01T05:54:21;8.47;;;2.53;;
17363;SDS011;8799;43.594;13.526;2023-03-01T05:56:50;6.40;;;2.77;;
17363;SDS011;8799;43.594;13.526;2023-03-01T05:59:17;9.00;;;2.70;;
17363;SDS011;8799;43.594;13.526;2023-03-01T06:01:45;8.33;;;2.43;;
17363;SDS011;8799;43.594;13.526;2023-03-01T06:04:15;9.73;;;2.63;;
17363;SDS011;8799;43.594;13.526;2023-03-01T06:06:44;10.33;;;2.70;;
17363;SDS011;8799;43.594;13.526;2023-03-01T06:09:12;10.47;;;2.83;;
17363;SDS011;8799;43.594;13.526;2023-03-01T06:11:40;5.37;;;2.20;;
17363;SDS011;8799;43.594;13.526;2023-03-01T06:14:08;10.60;;;2.40;;
17363;SDS011;8799;43.594;13.526;2023-03-01T06:16:38;4.77;;;2.30;;
17363;SDS011;8799;43.594;13.526;2023-03-01T06:19:06;11.70;;;2.90;;
17363;SDS011;8799;43.594;13.526;2023-03-01T06:21:35;8.20;;;2.30;;
17363;SDS011;8799;43.594;13.526;2023-03-01T06:24:03;5.93;;;2.73;;
17363;SDS011;8799;43.594;13.526;2023-03-01T06:26:33;8.47;;;2.67;;
17363;SDS011;8799;43.594;13.526;2023-03-01T06:29:01;7.33;;;2.27;;
17363;SDS011;8799;43.594;13.526;2023-03-01T06:31:29;7.10;;;2.57;;
17363;SDS011;8799;43.594;13.526;2023-03-01T06:33:57;8.43;;;2.57;;
17363;SDS011;8799;43.594;13.526;2023-03-01T06:36:25;10.53;;;2.97;;
17363;SDS011;8799;43.594;13.526;2023-03-01T06:38:55;10.07;;;3.10;;
17363;SDS011;8799;43.594;13.526;2023-03-01T06:41:24;12.87;;;2.40;;
17363;SDS011;8799;43.594;13.526;2023-03-01T06:43:53;8.10;;;2.20;;
17363;SDS011;8799;43.594;13.526;2023-03-01T06:46:20;5.97;;;2.53;;
17363;SDS011;8799;43.594;13.526;2023-03-01T06:48:48;8.93;;;2.77;;
17363;SDS011;8799;43.594;13.526;2023-03-01T06:51:16;7.10;;;2.40;;
17363;SDS011;8799;43.594;13.526;2023-03-01T06:53:45;12.07;;;2.50;;
17363;SDS011;8799;43.594;13.526;2023-03-01T06:56:15;8.70;;;2.67;;
17363;SDS011;8799;43.594;13.526;2023-03-01T06:58:43;8.53;;;2.90;;
17363;SDS011;8799;43.594;13.526;2023-03-01T07:01:11;7.77;;;2.23;;
17363;SDS011;8799;43.594;13.526;2023-03-01T07:03:41;8.17;;;2.53;;
17363;SDS011;8799;43.594;13.526;2023-03-01T07:08:48;7.20;;;2.10;;
17363;SDS011;8799;43.594;13.526;2023-03-01T07:11:18;7.83;;;2.00;;
17363;SDS011;8799;43.594;13.526;2023-03-01T07:13:46;6.20;;;2.50;;
17363;SDS011;8799;43.594;13.526;2023-03-01T07:16:13;10.30;;;2.57;;
17363;SDS011;8799;43.594;13.526;2023-03-01T07:18:41;7.33;;;2.70;;
17363;SDS011;8799;43.594;13.526;2023-03-01T07:21:11;6.00;;;2.20;;
17363;SDS011;8799;43.594;13.526;2023-03-01T07:23:40;6.10;;;2.33;;
17363;SDS011;8799;43.594;13.526;2023-03-01T07:26:09;5.33;;;2.30;;
17363;SDS011;8799;43.594;13.526;2023-03-01T07:28:39;9.77;;;2.53;;
17363;SDS011;8799;43.594;13.526;2023-03-01T07:31:08;6.20;;;2.23;;
17363;SDS011;8799;43.594;13.526;2023-03-01T07:33:36;7.70;;;2.23;;
17363;SDS011;8799;43.594;13.526;2023-03-01T07:36:05;4.43;;;2.10;;
17363;SDS011;8799;43.594;13.526;2023-03-01T07:38:33;7.40;;;2.47;;
17363;SDS011;8799;43.594;13.526;2023-03-01T07:41:02;8.50;;;2.43;;
17363;SDS011;8799;43.594;13.526;2023-03-01T07:43:30;11.63;;;2.60;;
17363;SDS011;8799;43.594;13.526;2023-03-01T07:46:04;10.17;;;2.07;;
17363;SDS011;8799;43.594;13.526;2023-03-01T07:48:33;9.60;;;2.53;;
17363;SDS011;8799;43.594;13.526;2023-03-01T07:51:01;9.80;;;2.60;;
17363;SDS011;8799;43.594;13.526;2023-03-01T07:53:30;5.33;;;2.13;;
17363;SDS011;8799;43.594;13.526;2023-03-01T07:56:02;5.77;;;2.17;;
17363;SDS011;8799;43.594;13.526;2023-03-01T07:58:31;9.57;;;2.67;;
17363;SDS011;8799;43.594;13.526;2023-03-01T08:01:01;9.27;;;2.50;;
17363;SDS011;8799;43.594;13.526;2023-03-01T08:03:32;6.17;;;2.10;;
17363;SDS011;8799;43.594;13.526;2023-03-01T08:06:01;5.73;;;2.30;;
17363;SDS011;8799;43.594;13.526;2023-03-01T08:08:30;8.37;;;2.30;;
17363;SDS011;8799;43.594;13.526;2023-03-01T08:10:58;6.07;;;2.03;;
17363;SDS011;8799;43.594;13.526;2023-03-01T08:13:27;8.83;;;2.93;;
17363;SDS011;8799;43.594;13.526;2023-03-01T08:16:00;7.53;;;2.43;;
17363;SDS011;8799;43.594;13.526;2023-03-01T08:18:30;6.93;;;2.53;;
17363;SDS011;8799;43.594;13.526;2023-03-01T08:21:01;7.20;;;2.10;;
17363;SDS011;8799;43.594;13.526;2023-03-01T08:23:29;7.93;;;2.43;;
17363;SDS011;8799;43.594;13.526;2023-03-01T08:26:03;5.00;;;2.20;;
17363;SDS011;8799;43.594;13.526;2023-03-01T08:28:34;7.63;;;2.20;;
17363;SDS011;8799;43.594;13.526;2023-03-01T08:31:02;6.73;;;2.40;;
17363;SDS011;8799;43.594;13.526;2023-03-01T08:33:41;5.60;;;2.10;;
17363;SDS011;8799;43.594;13.526;2023-03-01T08:36:09;6.80;;;1.90;;
17363;SDS011;8799;43.594;13.526;2023-03-01T08:38:37;4.13;;;2.10;;
17363;SDS011;8799;43.594;13.526;2023-03-01T08:41:05;7.73;;;2.50;;
17363;SDS011;8799;43.594;13.526;2023-03-01T08:43:33;8.10;;;1.90;;
17363;SDS011;8799;43.594;13.526;2023-03-01T08:46:01;7.57;;;2.30;;
17363;SDS011;8799;43.594;13.526;2023-03-01T08:48:29;11.17;;;2.57;;
17363;SDS011;8799;43.594;13.526;2023-03-01T08:51:08;8.10;;;2.60;;
17363;SDS011;8799;43.594;13.526;2023-03-01T08:53:36;5.43;;;1.90;;
17363;SDS011;8799;43.594;13.526;2023-03-01T08:56:05;8.87;;;2.60;;
17363;SDS011;8799;43.594;13.526;2023-03-01T08:58:34;9.70;;;2.97;;
17363;SDS011;8799;43.594;13.526;2023-03-01T09:01:06;9.07;;;2.57;;
17363;SDS011;8799;43.594;13.526;2023-03-01T09:03:34;10.57;;;2.50;;
17363;SDS011;8799;43.594;13.526;2023-03-01T09:06:02;7.90;;;2.40;;
17363;SDS011;8799;43.594;13.526;2023-03-01T09:08:33;15.90;;;3.10;;
17363;SDS011;8799;43.594;13.526;2023-03-01T09:11:02;7.57;;;2.43;;
17363;SDS011;8799;43.594;13.526;2023-03-01T09:13:31;6.03;;;2.13;;
17363;SDS011;8799;43.594;13.526;2023-03-01T09:15:59;8.10;;;2.30;;
17363;SDS011;8799;43.594;13.526;2023-03-01T09:18:27;12.17;;;3.20;;
17363;SDS011;8799;43.594;13.526;2023-03-01T09:21:00;8.23;;;2.60;;
17363;SDS011;8799;43.594;13.526;2023-03-01T09:23:34;9.47;;;2.50;;
17363;SDS011;8799;43.594;13.526;2023-03-01T09:26:04;12.33;;;2.70;;
17363;SDS011;8799;43.594;13.526;2023-03-01T09:28:31;16.17;;;2.73;;
17363;SDS011;8799;43.594;13.526;2023-03-01T09:31:00;7.00;;;2.43;;
17363;SDS011;8799;43.594;13.526;2023-03-01T09:33:28;8.13;;;2.67;;
17363;SDS011;8799;43.594;13.526;2023-03-01T09:35:57;12.40;;;2.87;;
17363;SDS011;8799;43.594;13.526;2023-03-01T09:38:25;9.07;;;2.63;;
17363;SDS011;8799;43.594;13.526;2023-03-01T09:40:54;9.87;;;2.43;;
17363;SDS011;8799;43.594;13.526;2023-03-01T09:43:23;10.53;;;3.40;;
17363;SDS011;8799;43.594;13.526;2023-03-01T09:46:03;7.10;;;2.03;;
17363;SDS011;8799;43.594;13.526;2023-03-01T09:48:41;9.23;;;2.23;;
17363;SDS011;8799;43.594;13.526;2023-03-01T09:51:12;5.80;;;2.40;;
17363;SDS011;8799;43.594;13.526;2023-03-01T09:53:44;11.10;;;2.37;;
17363;SDS011;8799;43.594;13.526;2023-03-01T09:56:15;5.17;;;2.47;;
17363;SDS011;8799;43.594;13.526;2023-03-01T09:58:49;5.97;;;2.20;;
17363;SDS011;8799;43.594;13.526;2023-03-01T10:01:29;6.17;;;2.27;;
17363;SDS011;8799;43.594;13.526;2023-03-01T10:04:03;5.83;;;2.33;;
17363;SDS011;8799;43.594;13.526;2023-03-01T10:06:40;9.13;;;2.43;;
17363;SDS011;8799;43.594;13.526;2023-03-01T10:09:12;7.60;;;2.40;;
17363;SDS011;8799;43.594;13.526;2023-03-01T10:11:46;9.97;;;2.40;;
17363;SDS011;8799;43.594;13.526;2023-03-01T10:14:22;11.33;;;2.47;;
17363;SDS011;8799;43.594;13.526;2023-03-01T10:16:58;12.43;;;2.63;;
17363;SDS011;8799;43.594;13.526;2023-03-01T10:19:30;12.27;;;2.90;;
17363;SDS011;8799;43.594;13.526;2023-03-01T10:22:03;11.47;;;2.20;;
17363;SDS011;8799;43.594;13.526;2023-03-01T10:24:38;8.20;;;2.60;;
17363;SDS011;8799;43.594;13.526;2023-03-01T10:27:09;5.67;;;1.80;;
17363;SDS011;8799;43.594;13.526;2023-03-01T10:29:46;11.10;;;2.80;;
17363;SDS011;8799;43.594;13.526;2023-03-01T10:32:22;6.93;;;2.50;;
17363;SDS011;8799;43.594;13.526;2023-03-01T10:34:50;9.33;;;2.50;;
17363;SDS011;8799;43.594;13.526;2023-03-01T10:37:18;10.57;;;2.30;;
17363;SDS011;8799;43.594;13.526;2023-03-01T10:40:00;5.83;;;2.57;;
17363;SDS011;8799;43.594;13.526;2023-03-01T10:42:35;5.07;;;1.87;;
17363;SDS011;8799;43.594;13.526;2023-03-01T10:45:15;6.67;;;2.83;;
17363;SDS011;8799;43.594;13.526;2023-03-01T10:48:03;6.50;;;2.33;;
17363;SDS011;8799;43.594;13.526;2023-03-01T10:50:40;7.03;;;2.57;;
17363;SDS011;8799;43.594;13.526;2023-03-01T10:56:00;9.83;;;2.10;;
17363;SDS011;8799;43.594;13.526;2023-03-01T10:58:32;5.87;;;2.47;;
17363;SDS011;8799;43.594;13.526;2023-03-01T11:01:01;11.73;;;2.50;;
17363;SDS011;8799;43.594;13.526;2023-03-01T11:03:32;10.73;;;2.90;;
17363;SDS011;8799;43.594;13.526;2023-03-01T11:06:03;10.90;;;2.67;;
17363;SDS011;8799;43.594;13.526;2023-03-01T11:08:36;3.60;;;1.80;;
17363;SDS011;8799;43.594;13.526;2023-03-01T11:11:16;8.03;;;2.60;;
17363;SDS011;8799;43.594;13.526;2023-03-01T11:13:58;8.50;;;2.10;;
17363;SDS011;8799;43.594;13.526;2023-03-01T11:16:33;4.33;;;2.03;;
17363;SDS011;8799;43.594;13.526;2023-03-01T11:19:18;2.63;;;1.53;;
17363;SDS011;8799;43.594;13.526;2023-03-01T11:21:53;3.90;;;2.00;;
17363;SDS011;8799;43.594;13.526;2023-03-01T11:24:36;3.80;;;1.93;;
17363;SDS011;8799;43.594;13.526;2023-03-01T11:27:12;7.00;;;1.83;;
17363;SDS011;8799;43.594;13.526;2023-03-01T11:29:46;5.27;;;2.00;;
17363;SDS011;8799;43.594;13.526;2023-03-01T11:32:19;5.33;;;2.03;;
17363;SDS011;8799;43.594;13.526;2023-03-01T11:34:51;6.77;;;2.17;;
17363;SDS011;8799;43.594;13.526;2023-03-01T11:37:26;5.83;;;2.30;;
17363;SDS011;8799;43.594;13.526;2023-03-01T11:40:03;6.93;;;1.90;;
17363;SDS011;8799;43.594;13.526;2023-03-01T11:42:42;8.20;;;2.23;;
17363;SDS011;8799;43.594;13.526;2023-03-01T11:45:17;9.30;;;2.00;;
17363;SDS011;8799;43.594;13.526;2023-03-01T11:50:50;9.43;;;2.27;;
17363;SDS011;8799;43.594;13.526;2023-03-01T11:53:26;5.50;;;1.70;;
17363;SDS011;8799;43.594;13.526;2023-03-01T11:56:09;3.47;;;1.57;;
17363;SDS011;8799;43.594;13.526;2023-03-01T11:58:54;5.67;;;2.00;;
17363;SDS011;8799;43.594;13.526;2023-03-01T12:01:40;2.70;;;1.70;;
17363;SDS011;8799;43.594;13.526;2023-03-01T12:07:18;7.13;;;2.10;;
17363;SDS011;8799;43.594;13.526;2023-03-01T12:09:55;5.90;;;2.20;;
17363;SDS011;8799;43.594;13.526;2023-03-01T12:12:44;5.63;;;1.57;;
17363;SDS011;8799;43.594;13.526;2023-03-01T12:18:20;4.43;;;2.10;;
17363;SDS011;8799;43.594;13.526;2023-03-01T12:21:13;3.80;;;1.93;;
17363;SDS011;8799;43.594;13.526;2023-03-01T12:23:50;9.27;;;2.03;;
17363;SDS011;8799;43.594;13.526;2023-03-01T12:26:34;5.43;;;1.90;;
17363;SDS011;8799;43.594;13.526;2023-03-01T12:29:12;4.37;;;1.63;;
17363;SDS011;8799;43.594;13.526;2023-03-01T12:32:00;4.50;;;2.03;;
17363;SDS011;8799;43.594;13.526;2023-03-01T12:35:03;4.77;;;2.27;;
17363;SDS011;8799;43.594;13.526;2023-03-01T12:37:51;4.07;;;2.00;;
17363;SDS011;8799;43.594;13.526;2023-03-01T12:43:33;3.93;;;1.77;;
17363;SDS011;8799;43.594;13.526;2023-03-01T12:46:18;4.43;;;2.30;;
17363;SDS011;8799;43.594;13.526;2023-03-01T12:48:54;9.17;;;1.87;;
17363;SDS011;8799;43.594;13.526;2023-03-01T12:51:34;3.87;;;1.83;;
17363;SDS011;8799;43.594;13.526;2023-03-01T12:54:05;4.27;;;2.00;;
17363;SDS011;8799;43.594;13.526;2023-03-01T12:56:41;5.03;;;2.00;;
17363;SDS011;8799;43.594;13.526;2023-03-01T12:59:18;4.27;;;2.07;;
17363;SDS011;8799;43.594;13.526;2023-03-01T13:01:52;4.90;;;2.20;;
17363;SDS011;8799;43.594;13.526;2023-03-01T13:04:31;7.37;;;2.13;;
17363;SDS011;8799;43.594;13.526;2023-03-01T13:07:23;4.53;;;1.87;;
17363;SDS011;8799;43.594;13.526;2023-03-01T13:10:00;6.73;;;2.37;;
17363;SDS011;8799;43.594;13.526;2023-03-01T13:12:42;4.73;;;1.97;;
17363;SDS011;8799;43.594;13.526;2023-03-01T13:15:30;4.33;;;2.07;;
17363;SDS011;8799;43.594;13.526;2023-03-01T13:18:00;3.30;;;2.03;;
17363;SDS011;8799;43.594;13.526;2023-03-01T13:20:31;6.37;;;2.03;;
17363;SDS011;8799;43.594;13.526;2023-03-01T13:23:13;3.93;;;1.93;;
17363;SDS011;8799;43.594;13.526;2023-03-01T13:26:02;3.77;;;1.90;;
17363;SDS011;8799;43.594;13.526;2023-03-01T13:43:27;3.07;;;1.60;;
17363;SDS011;8799;43.594;13.526;2023-03-01T13:45:56;3.53;;;1.93;;
17363;SDS011;8799;43.594;13.526;2023-03-01T13:48:26;5.90;;;1.83;;
17363;SDS011;8799;43.594;13.526;2023-03-01T13:50:57;3.63;;;1.63;;
17363;SDS011;8799;43.594;13.526;2023-03-01T13:53:29;3.70;;;2.10;;
17363;SDS011;8799;43.594;13.526;2023-03-01T13:56:03;4.93;;;2.20;;
17363;SDS011;8799;43.594;13.526;2023-03-01T14:01:26;3.30;;;1.63;;
17363;SDS011;8799;43.594;13.526;2023-03-01T14:03:55;4.13;;;2.23;;
17363;SDS011;8799;43.594;13.526;2023-03-01T14:06:25;4.30;;;1.97;;
17363;SDS011;8799;43.594;13.526;2023-03-01T14:09:00;2.30;;;1.90;;
17363;SDS011;8799;43.594;13.526;2023-03-01T14:11:41;4.50;;;2.10;;
17363;SDS011;8799;43.594;13.526;2023-03-01T14:14:32;5.23;;;2.03;;
17363;SDS011;8799;43.594;13.526;2023-03-01T14:17:12;3.53;;;1.80;;
17363;SDS011;8799;43.594;13.526;2023-03-01T14:20:00;3.40;;;1.73;;
17363;SDS011;8799;43.594;13.526;2023-03-01T14:22:35;4.40;;;1.83;;
17363;SDS011;8799;43.594;13.526;2023-03-01T14:25:16;4.00;;;1.73;;
17363;SDS011;8799;43.594;13.526;2023-03-01T14:27:51;3.03;;;1.70;;
17363;SDS011;8799;43.594;13.526;2023-03-01T14:30:24;3.23;;;1.87;;
17363;SDS011;8799;43.594;13.526;2023-03-01T14:32:54;3.07;;;1.90;;
17363;SDS011;8799;43.594;13.526;2023-03-01T14:35:25;2.63;;;1.70;;
17363;SDS011;8799;43.594;13.526;2023-03-01T14:37:53;4.07;;;1.90;;
17363;SDS011;8799;43.594;13.526;2023-03-01T14:40:26;3.10;;;1.70;;
17363;SDS011;8799;43.594;13.526;2023-03-01T14:42:56;2.93;;;1.77;;
17363;SDS011;8799;43.594;13.526;2023-03-01T14:45:28;7.13;;;1.77;;
17363;SDS011;8799;43.594;13.526;2023-03-01T14:47:58;2.13;;;1.63;;
17363;SDS011;8799;43.594;13.526;2023-03-01T14:50:28;6.87;;;1.63;;
17363;SDS011;8799;43.594;13.526;2023-03-01T14:52:58;4.73;;;2.23;;
17363;SDS011;8799;43.594;13.526;2023-03-01T14:55:28;2.63;;;1.40;;
17363;SDS011;8799;43.594;13.526;2023-03-01T14:57:58;2.47;;;1.43;;
17363;SDS011;8799;43.594;13.526;2023-03-01T15:00:28;4.17;;;1.60;;
17363;SDS011;8799;43.594;13.526;2023-03-01T15:02:58;2.17;;;1.67;;
17363;SDS011;8799;43.594;13.526;2023-03-01T15:05:34;2.13;;;1.60;;
17363;SDS011;8799;43.594;13.526;2023-03-01T15:08:03;3.57;;;1.90;;
17363;SDS011;8799;43.594;13.526;2023-03-01T15:10:33;2.30;;;1.60;;
17363;SDS011;8799;43.594;13.526;2023-03-01T15:13:12;2.43;;;1.57;;
17363;SDS011;8799;43.594;13.526;2023-03-01T15:15:42;3.93;;;1.83;;
17363;SDS011;8799;43.594;13.526;2023-03-01T15:18:15;2.03;;;1.57;;
17363;SDS011;8799;43.594;13.526;2023-03-01T15:20:45;3.60;;;2.00;;
17363;SDS011;8799;43.594;13.526;2023-03-01T15:23:17;5.17;;;1.80;;
17363;SDS011;8799;43.594;13.526;2023-03-01T15:26:20;3.03;;;1.80;;
17363;SDS011;8799;43.594;13.526;2023-03-01T15:28:52;3.00;;;1.70;;
17363;SDS011;8799;43.594;13.526;2023-03-01T15:31:25;2.10;;;1.60;;
17363;SDS011;8799;43.594;13.526;2023-03-01T15:36:49;5.67;;;2.67;;
17363;SDS011;8799;43.594;13.526;2023-03-01T15:39:30;1.83;;;1.40;;
17363;SDS011;8799;43.594;13.526;2023-03-01T15:42:02;3.30;;;1.60;;
17363;SDS011;8799;43.594;13.526;2023-03-01T15:44:32;1.53;;;1.20;;
17363;SDS011;8799;43.594;13.526;2023-03-01T15:47:03;3.60;;;1.70;;
17363;SDS011;8799;43.594;13.526;2023-03-01T15:49:50;1.87;;;1.50;;
17363;SDS011;8799;43.594;13.526;2023-03-01T15:52:22;2.10;;;1.43;;
17363;SDS011;8799;43.594;13.526;2023-03-01T15:54:54;2.23;;;1.67;;